sensor_id;sensor_type;location;lat;lon;timestamp;temperature;humidity
58153;DHT22;43967;51.634;5.566;2022-12-01T00:03:25;19.90;61.10
58153;DHT22;43967;51.634;5.566;2022-12-01T00:08:27;19.90;61.20
58153;DHT22;43967;51.634;5.566;2022-12-01T00:13:28;19.90;61.00
58153;DHT22;43967;51.634;5.566;2022-12-01T00:18:29;19.90;61.00
58153;DHT22;43967;51.634;5.566;2022-12-01T00:23:30;19.90;60.90
58153;DHT22;43967;51.634;5.566;2022-12-01T00:28:32;19.90;60.90
58153;DHT22;43967;51.634;5.566;2022-12-01T00:33:33;19.90;60.80
58153;DHT22;43967;51.634;5.566;2022-12-01T00:38:34;19.90;60.80
58153;DHT22;43967;51.634;5.566;2022-12-01T00:43:35;19.80;60.70
58153;DHT22;43967;51.634;5.566;2022-12-01T00:48:37;19.80;60.60
58153;DHT22;43967;51.634;5.566;2022-12-01T00:53:38;19.80;60.50
58153;DHT22;43967;51.634;5.566;2022-12-01T00:58:39;19.80;60.60
58153;DHT22;43967;51.634;5.566;2022-12-01T01:03:40;19.80;60.40
58153;DHT22;43967;51.634;5.566;2022-12-01T01:08:41;19.80;60.40
58153;DHT22;43967;51.634;5.566;2022-12-01T01:13:42;19.70;60.20
58153;DHT22;43967;51.634;5.566;2022-12-01T01:18:44;19.70;60.20
58153;DHT22;43967;51.634;5.566;2022-12-01T01:23:45;19.70;60.10
58153;DHT22;43967;51.634;5.566;2022-12-01T01:28:47;19.70;60.20
58153;DHT22;43967;51.634;5.566;2022-12-01T01:33:48;19.70;60.60
58153;DHT22;43967;51.634;5.566;2022-12-01T01:38:50;19.70;60.00
58153;DHT22;43967;51.634;5.566;2022-12-01T01:44:01;19.70;60.00
58153;DHT22;43967;51.634;5.566;2022-12-01T01:49:08;19.70;59.90
58153;DHT22;43967;51.634;5.566;2022-12-01T01:54:18;19.70;59.80
58153;DHT22;43967;51.634;5.566;2022-12-01T01:59:33;19.70;59.80
58153;DHT22;43967;51.634;5.566;2022-12-01T02:04:37;19.60;59.70
58153;DHT22;43967;51.634;5.566;2022-12-01T02:09:39;19.60;59.70
58153;DHT22;43967;51.634;5.566;2022-12-01T02:14:44;19.60;59.70
58153;DHT22;43967;51.634;5.566;2022-12-01T02:31:07;19.60;59.30
58153;DHT22;43967;51.634;5.566;2022-12-01T02:41:53;19.60;59.60
58153;DHT22;43967;51.634;5.566;2022-12-01T02:47:01;19.60;59.70
58153;DHT22;43967;51.634;5.566;2022-12-01T02:52:05;19.60;59.60
58153;DHT22;43967;51.634;5.566;2022-12-01T02:57:12;19.60;59.70
58153;DHT22;43967;51.634;5.566;2022-12-01T03:18:43;19.50;59.50
58153;DHT22;43967;51.634;5.566;2022-12-01T03:23:50;19.50;59.10
58153;DHT22;43967;51.634;5.566;2022-12-01T03:28:57;19.50;59.30
58153;DHT22;43967;51.634;5.566;2022-12-01T03:34:03;19.50;59.20
58153;DHT22;43967;51.634;5.566;2022-12-01T03:39:10;19.50;59.20
58153;DHT22;43967;51.634;5.566;2022-12-01T03:44:21;19.40;59.30
58153;DHT22;43967;51.634;5.566;2022-12-01T03:49:25;19.40;59.30
58153;DHT22;43967;51.634;5.566;2022-12-01T03:54:48;19.40;59.30
58153;DHT22;43967;51.634;5.566;2022-12-01T03:59:52;19.40;59.30
58153;DHT22;43967;51.634;5.566;2022-12-01T04:04:54;19.40;59.20
58153;DHT22;43967;51.634;5.566;2022-12-01T04:09:55;19.40;59.40
58153;DHT22;43967;51.634;5.566;2022-12-01T04:14:56;19.40;59.20
58153;DHT22;43967;51.634;5.566;2022-12-01T04:19:58;19.40;59.40
58153;DHT22;43967;51.634;5.566;2022-12-01T04:24:59;19.40;59.30
58153;DHT22;43967;51.634;5.566;2022-12-01T04:30:00;19.40;60.00
58153;DHT22;43967;51.634;5.566;2022-12-01T04:35:01;19.40;59.30
58153;DHT22;43967;51.634;5.566;2022-12-01T04:40:03;19.40;59.20
58153;DHT22;43967;51.634;5.566;2022-12-01T04:45:05;19.40;59.20
58153;DHT22;43967;51.634;5.566;2022-12-01T04:50:06;19.40;59.20
58153;DHT22;43967;51.634;5.566;2022-12-01T04:55:08;19.40;59.30
58153;DHT22;43967;51.634;5.566;2022-12-01T05:00:09;19.40;59.30
58153;DHT22;43967;51.634;5.566;2022-12-01T05:05:12;19.30;59.10
58153;DHT22;43967;51.634;5.566;2022-12-01T05:10:13;19.30;59.20
58153;DHT22;43967;51.634;5.566;2022-12-01T05:15:15;19.30;59.20
58153;DHT22;43967;51.634;5.566;2022-12-01T05:20:21;19.30;59.20
58153;DHT22;43967;51.634;5.566;2022-12-01T05:25:23;19.30;59.20
58153;DHT22;43967;51.634;5.566;2022-12-01T05:30:24;19.30;59.20
58153;DHT22;43967;51.634;5.566;2022-12-01T05:35:25;19.30;59.10
58153;DHT22;43967;51.634;5.566;2022-12-01T05:40:26;19.30;59.10
58153;DHT22;43967;51.634;5.566;2022-12-01T05:45:27;19.20;59.10
58153;DHT22;43967;51.634;5.566;2022-12-01T05:50:29;19.30;59.10
58153;DHT22;43967;51.634;5.566;2022-12-01T05:55:32;19.20;59.00
58153;DHT22;43967;51.634;5.566;2022-12-01T06:00:34;19.20;59.00
58153;DHT22;43967;51.634;5.566;2022-12-01T06:05:35;19.20;59.10
58153;DHT22;43967;51.634;5.566;2022-12-01T06:10:36;19.20;59.10
58153;DHT22;43967;51.634;5.566;2022-12-01T06:15:37;19.20;59.10
58153;DHT22;43967;51.634;5.566;2022-12-01T06:20:38;19.20;59.20
58153;DHT22;43967;51.634;5.566;2022-12-01T06:25:39;19.20;59.10
58153;DHT22;43967;51.634;5.566;2022-12-01T06:30:41;19.20;59.10
58153;DHT22;43967;51.634;5.566;2022-12-01T06:35:42;19.20;59.10
58153;DHT22;43967;51.634;5.566;2022-12-01T06:40:43;19.20;59.10
58153;DHT22;43967;51.634;5.566;2022-12-01T06:45:44;19.10;59.00
58153;DHT22;43967;51.634;5.566;2022-12-01T06:50:45;19.10;58.90
58153;DHT22;43967;51.634;5.566;2022-12-01T06:55:47;19.10;58.80
58153;DHT22;43967;51.634;5.566;2022-12-01T07:00:48;19.00;59.40
58153;DHT22;43967;51.634;5.566;2022-12-01T07:05:59;19.00;59.70
58153;DHT22;43967;51.634;5.566;2022-12-01T07:11:09;18.90;60.00
58153;DHT22;43967;51.634;5.566;2022-12-01T07:16:10;19.00;60.20
58153;DHT22;43967;51.634;5.566;2022-12-01T07:21:13;19.00;61.00
58153;DHT22;43967;51.634;5.566;2022-12-01T07:26:16;19.00;60.50
58153;DHT22;43967;51.634;5.566;2022-12-01T07:31:19;19.00;60.60
58153;DHT22;43967;51.634;5.566;2022-12-01T07:36:20;19.00;60.60
58153;DHT22;43967;51.634;5.566;2022-12-01T07:41:21;19.00;60.60
58153;DHT22;43967;51.634;5.566;2022-12-01T07:46:25;19.00;60.90
58153;DHT22;43967;51.634;5.566;2022-12-01T07:51:26;19.00;61.00
58153;DHT22;43967;51.634;5.566;2022-12-01T07:56:27;19.00;60.80
58153;DHT22;43967;51.634;5.566;2022-12-01T08:01:28;19.00;60.90
58153;DHT22;43967;51.634;5.566;2022-12-01T08:06:29;19.00;60.80
58153;DHT22;43967;51.634;5.566;2022-12-01T08:11:30;18.90;60.70
58153;DHT22;43967;51.634;5.566;2022-12-01T08:16:31;18.90;60.70
58153;DHT22;43967;51.634;5.566;2022-12-01T08:21:33;18.90;60.70
58153;DHT22;43967;51.634;5.566;2022-12-01T08:26:34;18.90;60.60
58153;DHT22;43967;51.634;5.566;2022-12-01T08:31:35;18.90;60.50
58153;DHT22;43967;51.634;5.566;2022-12-01T08:36:36;18.90;60.50
58153;DHT22;43967;51.634;5.566;2022-12-01T08:41:37;18.90;60.50
58153;DHT22;43967;51.634;5.566;2022-12-01T08:46:38;18.90;60.40
58153;DHT22;43967;51.634;5.566;2022-12-01T08:51:39;18.90;60.40
58153;DHT22;43967;51.634;5.566;2022-12-01T08:56:42;18.90;60.40
58153;DHT22;43967;51.634;5.566;2022-12-01T09:01:43;18.90;60.40
58153;DHT22;43967;51.634;5.566;2022-12-01T09:06:46;18.90;60.40
58153;DHT22;43967;51.634;5.566;2022-12-01T09:11:47;18.90;60.30
58153;DHT22;43967;51.634;5.566;2022-12-01T09:16:49;18.90;60.30
58153;DHT22;43967;51.634;5.566;2022-12-01T09:21:51;18.90;60.30
58153;DHT22;43967;51.634;5.566;2022-12-01T09:26:57;18.90;60.30
58153;DHT22;43967;51.634;5.566;2022-12-01T09:31:59;18.90;60.20
58153;DHT22;43967;51.634;5.566;2022-12-01T09:37:00;19.00;60.20
58153;DHT22;43967;51.634;5.566;2022-12-01T09:42:05;19.00;60.20
58153;DHT22;43967;51.634;5.566;2022-12-01T09:52:17;19.00;60.30
58153;DHT22;43967;51.634;5.566;2022-12-01T09:57:34;19.00;60.20
58153;DHT22;43967;51.634;5.566;2022-12-01T10:02:43;19.00;60.30
58153;DHT22;43967;51.634;5.566;2022-12-01T10:07:59;19.00;60.40
58153;DHT22;43967;51.634;5.566;2022-12-01T10:13:00;19.00;60.40
58153;DHT22;43967;51.634;5.566;2022-12-01T10:29:47;19.00;60.40
58153;DHT22;43967;51.634;5.566;2022-12-01T10:34:48;18.90;60.30
58153;DHT22;43967;51.634;5.566;2022-12-01T10:39:51;18.90;60.40
58153;DHT22;43967;51.634;5.566;2022-12-01T10:44:53;18.90;60.40
58153;DHT22;43967;51.634;5.566;2022-12-01T10:49:55;18.90;60.50
58153;DHT22;43967;51.634;5.566;2022-12-01T10:54:56;18.90;60.50
58153;DHT22;43967;51.634;5.566;2022-12-01T11:00:05;18.90;60.50
58153;DHT22;43967;51.634;5.566;2022-12-01T11:05:22;18.90;60.50
58153;DHT22;43967;51.634;5.566;2022-12-01T11:10:35;18.90;60.50
58153;DHT22;43967;51.634;5.566;2022-12-01T11:15:39;18.90;60.60
58153;DHT22;43967;51.634;5.566;2022-12-01T11:20:40;18.70;59.70
58153;DHT22;43967;51.634;5.566;2022-12-01T11:25:55;18.70;59.80
58153;DHT22;43967;51.634;5.566;2022-12-01T11:31:00;18.60;60.20
58153;DHT22;43967;51.634;5.566;2022-12-01T11:36:02;18.50;60.00
58153;DHT22;43967;51.634;5.566;2022-12-01T11:41:03;18.50;59.90
58153;DHT22;43967;51.634;5.566;2022-12-01T11:46:07;18.40;59.60
58153;DHT22;43967;51.634;5.566;2022-12-01T11:51:30;18.40;59.80
58153;DHT22;43967;51.634;5.566;2022-12-01T11:56:31;18.50;60.20
58153;DHT22;43967;51.634;5.566;2022-12-01T12:12:27;18.30;59.60
58153;DHT22;43967;51.634;5.566;2022-12-01T12:44:55;18.20;59.20
58153;DHT22;43967;51.634;5.566;2022-12-01T12:55:55;18.60;59.10
58153;DHT22;43967;51.634;5.566;2022-12-01T13:00:58;18.60;59.00
58153;DHT22;43967;51.634;5.566;2022-12-01T13:06:06;18.70;58.80
58153;DHT22;43967;51.634;5.566;2022-12-01T13:11:22;18.70;58.70
58153;DHT22;43967;51.634;5.566;2022-12-01T13:16:31;18.70;58.70
58153;DHT22;43967;51.634;5.566;2022-12-01T13:21:43;18.70;58.60
58153;DHT22;43967;51.634;5.566;2022-12-01T13:26:47;18.70;58.60
58153;DHT22;43967;51.634;5.566;2022-12-01T13:31:52;18.80;58.60
58153;DHT22;43967;51.634;5.566;2022-12-01T13:36:54;18.80;58.60
58153;DHT22;43967;51.634;5.566;2022-12-01T13:57:25;18.70;58.90
58153;DHT22;43967;51.634;5.566;2022-12-01T14:02:33;18.70;59.00
58153;DHT22;43967;51.634;5.566;2022-12-01T14:07:36;18.80;59.10
58153;DHT22;43967;51.634;5.566;2022-12-01T14:12:37;18.80;59.10
58153;DHT22;43967;51.634;5.566;2022-12-01T14:17:39;18.90;59.20
58153;DHT22;43967;51.634;5.566;2022-12-01T14:22:42;19.00;59.20
58153;DHT22;43967;51.634;5.566;2022-12-01T14:27:44;19.10;59.30
58153;DHT22;43967;51.634;5.566;2022-12-01T14:32:46;19.20;59.30
58153;DHT22;43967;51.634;5.566;2022-12-01T14:37:47;19.20;59.30
58153;DHT22;43967;51.634;5.566;2022-12-01T14:42:52;19.20;59.40
58153;DHT22;43967;51.634;5.566;2022-12-01T14:48:03;19.20;59.50
58153;DHT22;43967;51.634;5.566;2022-12-01T14:53:30;19.20;59.50
58153;DHT22;43967;51.634;5.566;2022-12-01T14:58:33;19.20;59.60
58153;DHT22;43967;51.634;5.566;2022-12-01T15:03:44;19.20;59.60
58153;DHT22;43967;51.634;5.566;2022-12-01T15:09:05;19.20;59.70
58153;DHT22;43967;51.634;5.566;2022-12-01T15:14:28;19.20;59.70
58153;DHT22;43967;51.634;5.566;2022-12-01T15:19:38;19.10;59.70
58153;DHT22;43967;51.634;5.566;2022-12-01T15:24:40;19.10;59.80
58153;DHT22;43967;51.634;5.566;2022-12-01T15:29:42;19.10;59.40
58153;DHT22;43967;51.634;5.566;2022-12-01T15:34:47;18.90;59.10
58153;DHT22;43967;51.634;5.566;2022-12-01T15:39:51;18.90;59.30
58153;DHT22;43967;51.634;5.566;2022-12-01T15:45:16;18.90;59.60
58153;DHT22;43967;51.634;5.566;2022-12-01T15:55:36;18.90;59.50
58153;DHT22;43967;51.634;5.566;2022-12-01T16:00:38;18.90;60.00
58153;DHT22;43967;51.634;5.566;2022-12-01T16:05:43;19.00;60.00
58153;DHT22;43967;51.634;5.566;2022-12-01T16:10:44;19.10;60.60
58153;DHT22;43967;51.634;5.566;2022-12-01T16:15:45;19.00;61.70
58153;DHT22;43967;51.634;5.566;2022-12-01T16:20:46;19.10;63.50
58153;DHT22;43967;51.634;5.566;2022-12-01T16:25:47;19.20;66.20
58153;DHT22;43967;51.634;5.566;2022-12-01T16:30:49;19.30;68.40
58153;DHT22;43967;51.634;5.566;2022-12-01T16:35:52;19.40;66.70
58153;DHT22;43967;51.634;5.566;2022-12-01T16:41:00;19.40;65.20
58153;DHT22;43967;51.634;5.566;2022-12-01T16:46:04;19.40;64.50
58153;DHT22;43967;51.634;5.566;2022-12-01T16:51:06;19.40;64.90
58153;DHT22;43967;51.634;5.566;2022-12-01T16:56:11;19.50;65.00
58153;DHT22;43967;51.634;5.566;2022-12-01T17:01:12;19.50;64.90
58153;DHT22;43967;51.634;5.566;2022-12-01T17:06:18;19.50;64.70
58153;DHT22;43967;51.634;5.566;2022-12-01T17:11:19;19.60;64.20
58153;DHT22;43967;51.634;5.566;2022-12-01T17:16:20;19.50;64.10
58153;DHT22;43967;51.634;5.566;2022-12-01T17:21:22;19.50;64.00
58153;DHT22;43967;51.634;5.566;2022-12-01T17:26:23;19.60;63.90
58153;DHT22;43967;51.634;5.566;2022-12-01T17:31:24;19.50;63.80
58153;DHT22;43967;51.634;5.566;2022-12-01T17:36:25;19.50;63.10
58153;DHT22;43967;51.634;5.566;2022-12-01T17:41:26;19.50;63.10
58153;DHT22;43967;51.634;5.566;2022-12-01T17:46:27;19.50;63.70
58153;DHT22;43967;51.634;5.566;2022-12-01T17:51:28;19.40;63.60
58153;DHT22;43967;51.634;5.566;2022-12-01T17:56:29;19.50;63.50
58153;DHT22;43967;51.634;5.566;2022-12-01T18:01:30;19.40;63.70
58153;DHT22;43967;51.634;5.566;2022-12-01T18:06:31;19.40;63.70
58153;DHT22;43967;51.634;5.566;2022-12-01T18:11:32;19.50;63.20
58153;DHT22;43967;51.634;5.566;2022-12-01T18:16:34;19.50;62.90
58153;DHT22;43967;51.634;5.566;2022-12-01T18:21:35;19.40;63.20
58153;DHT22;43967;51.634;5.566;2022-12-01T18:26:38;19.30;63.00
58153;DHT22;43967;51.634;5.566;2022-12-01T18:31:40;19.30;62.70
58153;DHT22;43967;51.634;5.566;2022-12-01T18:36:42;19.30;62.70
58153;DHT22;43967;51.634;5.566;2022-12-01T18:41:43;19.20;62.60
58153;DHT22;43967;51.634;5.566;2022-12-01T18:46:44;19.20;62.50
58153;DHT22;43967;51.634;5.566;2022-12-01T18:51:45;19.20;62.40
58153;DHT22;43967;51.634;5.566;2022-12-01T18:56:50;19.10;62.20
58153;DHT22;43967;51.634;5.566;2022-12-01T19:01:51;19.10;62.10
58153;DHT22;43967;51.634;5.566;2022-12-01T19:06:52;19.10;61.90
58153;DHT22;43967;51.634;5.566;2022-12-01T22:42:32;19.00;61.50
58153;DHT22;43967;51.634;5.566;2022-12-01T22:47:33;19.00;61.40
58153;DHT22;43967;51.634;5.566;2022-12-01T22:52:34;19.00;61.30
58153;DHT22;43967;51.634;5.566;2022-12-01T22:57:35;18.90;61.30
58153;DHT22;43967;51.634;5.566;2022-12-01T23:02:36;18.90;61.10
58153;DHT22;43967;51.634;5.566;2022-12-01T23:07:40;18.90;61.10
58153;DHT22;43967;51.634;5.566;2022-12-01T23:12:43;18.90;61.20
58153;DHT22;43967;51.634;5.566;2022-12-01T23:17:44;18.90;61.10
58153;DHT22;43967;51.634;5.566;2022-12-01T23:22:46;18.90;60.80
58153;DHT22;43967;51.634;5.566;2022-12-01T23:27:49;18.90;60.80
58153;DHT22;43967;51.634;5.566;2022-12-01T23:33:01;18.90;60.70
58153;DHT22;43967;51.634;5.566;2022-12-01T23:38:02;18.80;60.50
58153;DHT22;43967;51.634;5.566;2022-12-01T23:43:37;18.80;60.50
58153;DHT22;43967;51.634;5.566;2022-12-01T23:48:52;18.80;60.40
58153;DHT22;43967;51.634;5.566;2022-12-01T23:53:57;18.80;60.30
58153;DHT22;43967;51.634;5.566;2022-12-01T23:58:59;18.80;60.20
